Time;durP1;ratioP1;P1;durP2;ratioP2;P2;SDS_P1;SDS_P2;PMS_P1;PMS_P2;Temp;Humidity;BMP_temperature;BMP_pressure;BME280_temperature;BME280_humidity;BME280_pressure;Samples;Min_cycle;Max_cycle;Signal;HPM_P1;HPM_P2
2023/06/21 00:00:31;;;;;;;;;;;;;;;21.26;61.73;100897.38;7405005;19;1024;-47
2023/06/21 00:02:59;;;;;;;;;;;;;;;21.57;60.93;100889.06;7403041;19;1942;-47
2023/06/21 00:05:27;;;;;;;;;;;;;;;21.59;60.75;100870.94;7403389;19;1730;-47
2023/06/21 00:07:56;;;;;;;;;;;;;;;21.64;60.53;100876.69;7400345;19;1387;-47
2023/06/21 00:10:24;;;;;;;;;;;;;;;21.67;60.49;100889.03;7400257;19;1855;-47
2023/06/21 00:12:53;;;;;;;;;;;;;;;21.58;60.54;100878.13;7402881;19;1490;-47
2023/06/21 00:15:22;;;;;;;;;;;;;;;21.63;60.52;100885.78;7403385;19;1570;-47
2023/06/21 00:17:53;;;;;;;;;;;;;;;21.63;60.44;100875.00;7402938;19;1264;-47
2023/06/21 00:20:21;;;;;;;;;;;;;;;21.63;60.59;100881.22;7403208;19;1122;-47
2023/06/21 00:22:55;;;;;;;;;;;;;;;21.61;60.68;100874.31;7402344;19;1481;-48
2023/06/21 00:25:24;;;;;;;;;;;;;;;21.60;60.77;100881.50;7402300;19;1909;-47
2023/06/21 00:27:52;;;;;;;;;;;;;;;21.62;60.75;100873.31;7402659;19;1210;-47
2023/06/21 00:30:20;;;;;;;;;;;;;;;21.65;60.63;100890.00;7400643;19;1849;-47
2023/06/21 00:32:49;;;;;;;;;;;;;;;21.69;60.48;100879.78;7401842;19;1240;-47
2023/06/21 00:35:20;;;;;;;;;;;;;;;21.40;61.36;100896.88;7402552;19;1621;-47
2023/06/21 00:37:48;;;;;;;;;;;;;;;21.52;60.98;100894.88;7402445;19;1517;-47
2023/06/21 00:40:18;;;;;;;;;;;;;;;21.59;60.69;100882.53;7402058;19;1377;-48
2023/06/21 00:42:47;;;;;;;;;;;;;;;21.42;61.08;100905.66;7400988;19;1779;-48
2023/06/21 00:45:17;;;;;;;;;;;;;;;21.31;61.21;100878.97;7402879;19;1819;-48
2023/06/21 00:47:45;;;;;;;;;;;;;;;21.50;60.51;100872.66;7403692;19;1027;-48
2023/06/21 00:50:14;;;;;;;;;;;;;;;21.65;60.20;100883.78;7401644;19;1902;-47
2023/06/21 00:52:46;;;;;;;;;;;;;;;21.66;60.27;100882.75;7402229;19;1939;-47
2023/06/21 00:55:19;;;;;;;;;;;;;;;21.58;60.40;100880.81;7400419;19;1582;-47
2023/06/21 00:57:47;;;;;;;;;;;;;;;21.56;60.04;100884.66;7403108;19;1787;-48
2023/06/21 01:00:20;;;;;;;;;;;;;;;21.53;60.26;100879.59;7401923;19;1956;-48
2023/06/21 01:02:49;;;;;;;;;;;;;;;21.49;60.15;100873.66;7402149;19;1806;-47
2023/06/21 01:05:18;;;;;;;;;;;;;;;21.51;60.32;100879.75;7400392;19;1966;-48
2023/06/21 01:07:54;;;;;;;;;;;;;;;21.53;60.32;100884.97;7399993;19;1562;-47
2023/06/21 01:10:29;;;;;;;;;;;;;;;21.53;60.32;100884.97;7400329;19;1881;-47
2023/06/21 01:13:04;;;;;;;;;;;;;;;21.53;60.52;100890.38;7401389;19;1640;-48
2023/06/21 01:15:35;;;;;;;;;;;;;;;21.52;60.25;100885.97;7401913;19;1485;-47
2023/06/21 01:18:05;;;;;;;;;;;;;;;21.56;60.32;100890.06;7401358;19;1783;-47
2023/06/21 01:20:35;;;;;;;;;;;;;;;21.57;60.24;100889.06;7400918;19;1087;-48
2023/06/21 01:23:18;;;;;;;;;;;;;;;21.53;60.29;100890.38;7401806;19;1114;-47
2023/06/21 01:25:55;;;;;;;;;;;;;;;21.60;60.35;100889.59;7402852;19;946;-47
2023/06/21 01:28:41;;;;;;;;;;;;;;;21.59;60.46;100876.31;7402494;19;1026;-47
2023/06/21 01:31:15;;;;;;;;;;;;;;;21.52;60.36;100880.59;7401073;19;1853;-48
2023/06/21 01:33:44;;;;;;;;;;;;;;;21.54;60.47;100878.59;7402170;19;1222;-48
2023/06/21 01:36:12;;;;;;;;;;;;;;;21.52;60.42;100888.66;7401238;19;1510;-47
2023/06/21 01:38:40;;;;;;;;;;;;;;;21.52;60.68;100899.41;7401261;19;1609;-48
2023/06/21 01:41:10;;;;;;;;;;;;;;;21.48;60.77;100906.94;7400195;19;1495;-48
2023/06/21 01:43:39;;;;;;;;;;;;;;;21.60;60.61;100913.81;7401228;19;1542;-47
2023/06/21 01:46:08;;;;;;;;;;;;;;;21.53;60.73;100909.19;7400288;19;1452;-48
2023/06/21 01:48:40;;;;;;;;;;;;;;;21.57;60.52;100911.44;7399941;19;1760;-47
2023/06/21 01:51:09;;;;;;;;;;;;;;;21.48;60.73;100917.69;7399027;19;1842;-47
2023/06/21 01:53:39;;;;;;;;;;;;;;;21.48;60.63;100920.38;7398906;19;1713;-48
2023/06/21 01:56:09;;;;;;;;;;;;;;;21.44;60.56;100903.69;7398018;19;1411;-47
2023/06/21 01:58:37;;;;;;;;;;;;;;;21.45;60.47;100935.00;7401363;19;1038;-47
2023/06/21 02:01:06;;;;;;;;;;;;;;;21.52;60.50;100939.78;7397526;19;1820;-47
2023/06/21 02:03:37;;;;;;;;;;;;;;;21.44;60.53;100908.22;7399101;19;1807;-49
2023/06/21 02:06:11;;;;;;;;;;;;;;;21.45;60.59;100918.84;7400212;19;1337;-47
2023/06/21 02:08:40;;;;;;;;;;;;;;;21.49;60.28;100927.47;7400799;19;1490;-47
2023/06/21 02:11:08;;;;;;;;;;;;;;;21.50;60.21;100918.38;7399367;19;1853;-47
2023/06/21 02:13:37;;;;;;;;;;;;;;;21.42;60.54;100916.41;7399326;19;1938;-49
2023/06/21 02:16:05;;;;;;;;;;;;;;;21.20;61.07;100919.47;7398989;19;1622;-48
2023/06/21 02:18:34;;;;;;;;;;;;;;;20.99;60.66;100856.00;7397907;19;1315;-49
2023/06/21 02:21:03;;;;;;;;;;;;;;;21.42;60.22;100927.16;7397472;19;1830;-49
2023/06/21 02:23:34;;;;;;;;;;;;;;;21.51;60.07;100930.88;7400824;19;941;-49
2023/06/21 02:26:02;;;;;;;;;;;;;;;21.44;60.14;100930.59;7400435;19;2066;-49
2023/06/21 02:28:30;;;;;;;;;;;;;;;21.43;60.10;100918.16;7399242;19;1613;-49
2023/06/21 02:30:59;;;;;;;;;;;;;;;21.28;60.27;100935.72;7394505;19;1949;-61
2023/06/21 02:33:27;;;;;;;;;;;;;;;21.42;60.04;100935.25;7400144;19;2058;-48
2023/06/21 02:35:55;;;;;;;;;;;;;;;21.39;59.96;100940.94;7399646;19;1046;-49
2023/06/21 02:38:25;;;;;;;;;;;;;;;21.44;59.89;100949.41;7399095;19;1514;-49
2023/06/21 02:40:56;;;;;;;;;;;;;;;21.39;59.87;100938.25;7399028;19;1597;-48
2023/06/21 02:43:24;;;;;;;;;;;;;;;21.44;59.70;100944.03;7398271;19;1891;-49
2023/06/21 02:45:52;;;;;;;;;;;;;;;21.51;59.79;100951.56;7398292;19;2025;-48
2023/06/21 02:48:20;;;;;;;;;;;;;;;21.53;59.83;100954.94;7397895;19;1212;-48
2023/06/21 02:50:49;;;;;;;;;;;;;;;21.59;59.65;100948.97;7398115;19;1857;-48
2023/06/21 02:53:18;;;;;;;;;;;;;;;21.43;60.13;100950.44;7399066;19;1739;-47
2023/06/21 02:55:46;;;;;;;;;;;;;;;21.35;60.19;100947.59;7397644;19;1046;-48
2023/06/21 02:58:17;;;;;;;;;;;;;;;21.13;60.94;100946.09;7397983;19;1950;-48
2023/06/21 03:00:45;;;;;;;;;;;;;;;21.28;60.15;100941.09;7398321;19;1957;-48
2023/06/21 03:03:14;;;;;;;;;;;;;;;21.31;60.16;100940.81;7397691;19;1866;-49
2023/06/21 03:05:42;;;;;;;;;;;;;;;21.17;60.55;100938.56;7397677;19;1746;-49
2023/06/21 03:08:11;;;;;;;;;;;;;;;21.08;60.91;100944.84;7398719;19;1705;-49
2023/06/21 03:10:39;;;;;;;;;;;;;;;21.19;60.37;100952.75;7397306;19;1858;-48
2023/06/21 03:13:08;;;;;;;;;;;;;;;21.34;60.23;100947.75;7396766;19;1810;-49
2023/06/21 03:15:39;;;;;;;;;;;;;;;21.33;60.23;100949.59;7396161;19;1387;-49
2023/06/21 03:18:07;;;;;;;;;;;;;;;21.44;60.09;100949.41;7397627;19;1466;-48
2023/06/21 03:20:35;;;;;;;;;;;;;;;21.43;59.93;100941.53;7396871;19;1558;-49
2023/06/21 03:23:04;;;;;;;;;;;;;;;21.45;59.95;100953.81;7398757;19;1030;-48
2023/06/21 03:25:32;;;;;;;;;;;;;;;21.43;60.03;100953.13;7397208;19;1601;-49
2023/06/21 03:28:00;;;;;;;;;;;;;;;21.43;60.11;100947.75;7396899;19;1537;-48
2023/06/21 03:30:29;;;;;;;;;;;;;;;21.52;60.00;100948.69;7394766;19;1855;-51
2023/06/21 03:33:00;;;;;;;;;;;;;;;21.51;60.25;100951.56;7397532;19;1777;-47
2023/06/21 03:35:29;;;;;;;;;;;;;;;21.56;60.38;100963.53;7397025;19;1776;-48
2023/06/21 03:37:57;;;;;;;;;;;;;;;21.56;60.16;100957.31;7397169;19;1447;-49
2023/06/21 03:40:26;;;;;;;;;;;;;;;21.63;60.36;100955.75;7396125;19;1819;-49
2023/06/21 03:42:54;;;;;;;;;;;;;;;21.56;60.31;100949.25;7395667;19;1554;-48
2023/06/21 03:45:22;;;;;;;;;;;;;;;21.64;60.36;100965.50;7397228;19;1803;-49
2023/06/21 03:47:51;;;;;;;;;;;;;;;21.60;60.34;100962.25;7398165;19;1033;-48
2023/06/21 03:50:22;;;;;;;;;;;;;;;21.54;60.53;100956.63;7397565;19;1867;-48
2023/06/21 03:52:51;;;;;;;;;;;;;;;21.53;60.28;100960.31;7394496;19;1852;-48
2023/06/21 03:55:19;;;;;;;;;;;;;;;21.49;60.76;100964.28;7394230;19;1637;-48
2023/06/21 03:57:47;;;;;;;;;;;;;;;21.55;60.45;100966.41;7396521;19;1593;-47
2023/06/21 04:00:16;;;;;;;;;;;;;;;21.57;60.75;100967.09;7396289;19;1072;-48
2023/06/21 04:02:45;;;;;;;;;;;;;;;21.43;61.09;100950.44;7395277;19;1526;-49
2023/06/21 04:05:13;;;;;;;;;;;;;;;21.37;61.15;100960.91;7395565;19;1548;-49
2023/06/21 04:07:44;;;;;;;;;;;;;;;21.59;60.60;100955.19;7395228;19;1342;-49
2023/06/21 04:10:13;;;;;;;;;;;;;;;21.59;60.77;100970.50;7395467;19;1424;-49
2023/06/21 04:12:41;;;;;;;;;;;;;;;21.66;60.51;100960.81;7393357;19;1881;-48
2023/06/21 04:15:11;;;;;;;;;;;;;;;21.56;60.87;100960.84;7394903;19;1307;-47
2023/06/21 04:17:39;;;;;;;;;;;;;;;21.26;61.99;100969.97;7397328;19;1303;-48
2023/06/21 04:20:13;;;;;;;;;;;;;;;21.29;62.13;100969.72;7393694;19;1584;-49
2023/06/21 04:22:45;;;;;;;;;;;;;;;21.33;62.01;100976.50;7396581;19;1971;-48
2023/06/21 04:25:13;;;;;;;;;;;;;;;21.27;62.09;100977.06;7395750;19;1856;-48
2023/06/21 04:27:45;;;;;;;;;;;;;;;21.39;62.11;100964.31;7396938;19;1834;-47
2023/06/21 04:30:14;;;;;;;;;;;;;;;21.43;61.81;100971.13;7395702;19;1805;-47
2023/06/21 04:32:44;;;;;;;;;;;;;;;21.40;62.09;100965.97;7393228;19;1851;-49
2023/06/21 04:35:14;;;;;;;;;;;;;;;21.46;61.87;100976.19;7395756;19;1722;-48
2023/06/21 04:37:46;;;;;;;;;;;;;;;21.43;62.08;100977.34;7395345;19;1720;-48
2023/06/21 04:40:15;;;;;;;;;;;;;;;21.35;62.22;100974.50;7393855;19;1377;-47
2023/06/21 04:42:44;;;;;;;;;;;;;;;21.40;62.02;100972.19;7397980;19;1736;-48
2023/06/21 04:45:14;;;;;;;;;;;;;;;21.43;62.15;100981.88;7403335;19;1411;-48
2023/06/21 04:47:42;;;;;;;;;;;;;;;21.43;62.22;100982.72;7401882;19;1061;-48
2023/06/21 04:50:12;;;;;;;;;;;;;;;21.34;62.43;100967.41;7403373;19;1609;-47
2023/06/21 04:52:41;;;;;;;;;;;;;;;21.34;62.55;100994.31;7400061;19;1873;-55
2023/06/21 04:55:12;;;;;;;;;;;;;;;21.42;62.50;100980.13;7399754;19;1961;-48
2023/06/21 04:57:41;;;;;;;;;;;;;;;21.43;62.54;100998.03;7402518;19;1816;-48
2023/06/21 05:00:10;;;;;;;;;;;;;;;21.51;62.42;100989.22;6879101;19;9999809;-47
2023/06/21 05:02:38;;;;;;;;;;;;;;;21.50;62.64;100999.13;7395761;19;1612;-48
2023/06/21 05:05:07;;;;;;;;;;;;;;;21.46;62.98;100997.72;7395353;19;1660;-48
2023/06/21 05:07:37;;;;;;;;;;;;;;;21.50;63.18;101003.66;7394428;19;1799;-48
2023/06/21 05:10:07;;;;;;;;;;;;;;;21.52;63.21;100996.28;7394242;19;1744;-48
2023/06/21 05:12:38;;;;;;;;;;;;;;;21.52;63.41;100990.91;7392669;19;1860;-47
2023/06/21 05:15:07;;;;;;;;;;;;;;;21.61;63.27;100995.41;7395749;19;1761;-48
2023/06/21 05:17:36;;;;;;;;;;;;;;;21.66;62.94;100979.66;7395928;19;1110;-48
2023/06/21 05:20:05;;;;;;;;;;;;;;;21.68;62.78;100974.97;7394550;19;1773;-48
2023/06/21 05:22:33;;;;;;;;;;;;;;;21.88;62.90;100997.25;7392921;19;1573;-48
2023/06/21 05:25:04;;;;;;;;;;;;;;;22.09;61.80;100994.34;7394562;19;1620;-49
2023/06/21 05:27:32;;;;;;;;;;;;;;;22.18;61.95;100989.88;7383829;19;1505;-48
2023/06/21 05:30:03;;;;;;;;;;;;;;;22.29;61.72;100995.09;7398087;19;1557;-46
2023/06/21 05:32:31;;;;;;;;;;;;;;;22.21;61.98;100990.44;7390421;19;1847;-47
2023/06/21 05:35:00;;;;;;;;;;;;;;;22.14;62.44;100992.03;7396537;19;1118;-48
2023/06/21 05:37:28;;;;;;;;;;;;;;;22.10;62.26;100990.63;7398458;19;1330;-46
2023/06/21 05:40:00;;;;;;;;;;;;;;;22.02;62.60;100983.34;7399335;19;1824;-47
2023/06/21 05:42:29;;;;;;;;;;;;;;;21.97;63.38;100980.22;7399624;19;1731;-47
2023/06/21 05:44:57;;;;;;;;;;;;;;;22.07;62.75;100999.03;7399577;19;1667;-46
2023/06/21 05:47:28;;;;;;;;;;;;;;;22.17;62.28;100990.91;7399248;19;965;-47
2023/06/21 05:49:56;;;;;;;;;;;;;;;22.43;61.87;100985.66;7400397;19;1859;-47
2023/06/21 05:52:24;;;;;;;;;;;;;;;22.35;61.88;100990.97;7398685;19;1855;-46
2023/06/21 05:54:52;;;;;;;;;;;;;;;22.36;62.21;100996.19;7399109;19;1727;-47
2023/06/21 05:57:20;;;;;;;;;;;;;;;;;;7399213;19;1724;-47
2023/06/21 05:59:48;;;;;;;;;;;;;;;;;;7399740;19;1754;-47
2023/06/21 06:02:17;;;;;;;;;;;;;;;22.42;62.03;101000.97;7399176;19;1053;-47
2023/06/21 06:04:48;;;;;;;;;;;;;;;22.54;61.92;101000.72;7399322;19;1467;-46
2023/06/21 06:07:17;;;;;;;;;;;;;;;22.48;61.98;100996.78;7398473;19;1811;-46
2023/06/21 06:09:46;;;;;;;;;;;;;;;22.71;61.25;100988.28;7399011;19;1501;-47
2023/06/21 06:12:14;;;;;;;;;;;;;;;22.47;62.81;100996.97;7397361;19;1846;-47
2023/06/21 06:14:42;;;;;;;;;;;;;;;22.39;62.53;100997.72;7398819;19;1812;-47
2023/06/21 06:17:11;;;;;;;;;;;;;;;22.59;61.90;100985.81;7401066;19;1210;-47
2023/06/21 06:19:39;;;;;;;;;;;;;;;22.68;61.81;100983.19;7398723;19;1858;-47
2023/06/21 06:22:11;;;;;;;;;;;;;;;22.79;61.33;100974.88;7398677;19;1753;-47
2023/06/21 06:24:39;;;;;;;;;;;;;;;22.80;61.53;100976.53;7399521;19;1473;-47
2023/06/21 06:27:08;;;;;;;;;;;;;;;22.90;60.84;100971.06;7399103;19;1783;-47
2023/06/21 06:29:36;;;;;;;;;;;;;;;22.89;61.22;100983.72;7400657;19;1085;-47
2023/06/21 06:32:05;;;;;;;;;;;;;;;22.96;61.15;100952.44;7396408;19;1846;-47
2023/06/21 06:34:34;;;;;;;;;;;;;;;22.79;61.61;100958.69;7398222;19;1788;-47
2023/06/21 06:37:02;;;;;;;;;;;;;;;22.78;61.92;100974.03;7395120;19;1466;-47
2023/06/21 06:39:33;;;;;;;;;;;;;;;22.88;61.29;100967.66;7394824;19;1463;-47
2023/06/21 06:42:01;;;;;;;;;;;;;;;22.73;63.06;100965.53;7394899;19;1181;-47
2023/06/21 06:44:29;;;;;;;;;;;;;;;22.76;63.51;100965.25;7393730;19;1392;-47
2023/06/21 06:46:58;;;;;;;;;;;;;;;22.73;63.67;100964.69;7397423;19;1129;-47
2023/06/21 06:49:26;;;;;;;;;;;;;;;22.84;62.53;100941.03;7395271;19;1606;-47
2023/06/21 06:51:54;;;;;;;;;;;;;;;23.14;61.34;100962.34;7395627;19;1876;-47
2023/06/21 06:54:23;;;;;;;;;;;;;;;23.15;61.59;100945.16;7396954;19;1543;-47
2023/06/21 06:56:53;;;;;;;;;;;;;;;23.24;61.32;100963.09;7397331;19;1835;-47
2023/06/21 06:59:22;;;;;;;;;;;;;;;23.03;63.67;100941.88;7394887;19;1602;-47
2023/06/21 07:01:50;;;;;;;;;;;;;;;22.81;64.73;100989.88;7395254;19;1546;-46
2023/06/21 07:04:18;;;;;;;;;;;;;;;23.16;63.22;100971.16;7396732;19;1035;-46
2023/06/21 07:06:50;;;;;;;;;;;;;;;23.10;63.19;100969.06;7386169;19;1519;-47
2023/06/21 07:09:18;;;;;;;;;;;;;;;23.10;63.09;100955.56;7391781;19;1626;-47
2023/06/21 07:11:47;;;;;;;;;;;;;;;23.05;63.41;100957.91;7395736;19;1852;-55
2023/06/21 07:14:18;;;;;;;;;;;;;;;23.13;63.48;100961.50;7394879;19;1636;-54
2023/06/21 07:16:46;;;;;;;;;;;;;;;23.15;63.79;100954.09;7394270;19;1062;-47
2023/06/21 07:19:14;;;;;;;;;;;;;;;23.31;63.48;100947.94;7394646;19;1546;-54
2023/06/21 07:21:44;;;;;;;;;;;;;;;23.24;63.22;100957.72;7394966;19;1423;-46
2023/06/21 07:24:13;;;;;;;;;;;;;;;23.23;63.33;100961.41;7396222;19;1357;-54
2023/06/21 07:26:42;;;;;;;;;;;;;;;23.28;63.17;100961.78;7396579;19;1463;-47
2023/06/21 07:29:10;;;;;;;;;;;;;;;23.35;63.24;100961.97;7394838;19;1562;-48
2023/06/21 07:31:41;;;;;;;;;;;;;;;23.31;63.04;100963.31;7397156;19;1570;-46
2023/06/21 07:34:10;;;;;;;;;;;;;;;23.22;63.47;100957.03;7397187;19;1210;-46
2023/06/21 07:36:39;;;;;;;;;;;;;;;23.29;63.26;100960.75;7395236;19;1720;-54
2023/06/21 07:39:07;;;;;;;;;;;;;;;23.37;62.92;100947.31;7395559;19;1038;-47
2023/06/21 07:41:35;;;;;;;;;;;;;;;23.27;63.51;100967.31;7396097;19;1888;-47
2023/06/21 07:44:03;;;;;;;;;;;;;;;23.11;64.09;100957.28;7396457;19;1895;-47
2023/06/21 07:46:32;;;;;;;;;;;;;;;23.15;64.16;100961.34;7395274;19;1907;-47
2023/06/21 07:49:03;;;;;;;;;;;;;;;23.24;63.72;100968.50;7394256;19;1632;-47
2023/06/21 07:51:31;;;;;;;;;;;;;;;23.13;63.59;100955.25;7392602;19;1679;-54
2023/06/21 07:53:59;;;;;;;;;;;;;;;23.24;63.74;100955.00;7394355;19;1845;-48
2023/06/21 07:56:28;;;;;;;;;;;;;;;23.24;63.40;100952.31;7395670;19;1712;-54
2023/06/21 07:58:56;;;;;;;;;;;;;;;23.33;63.34;100945.09;7394643;19;1818;-55
2023/06/21 08:01:24;;;;;;;;;;;;;;;23.29;63.57;100954.53;7394779;19;1663;-54
2023/06/21 08:03:53;;;;;;;;;;;;;;;23.17;63.93;100948.53;7395514;19;970;-55
2023/06/21 08:06:23;;;;;;;;;;;;;;;23.33;63.26;100954.03;7396493;19;1075;-55
2023/06/21 08:08:52;;;;;;;;;;;;;;;23.36;63.39;100963.69;7395217;19;1870;-58
2023/06/21 08:11:20;;;;;;;;;;;;;;;23.31;63.28;100949.81;7395537;19;1459;-54
2023/06/21 08:13:48;;;;;;;;;;;;;;;23.21;63.93;100958.00;7391159;19;1845;-55
2023/06/21 08:16:17;;;;;;;;;;;;;;;23.22;63.79;100963.25;7395794;19;1722;-55
2023/06/21 08:18:45;;;;;;;;;;;;;;;23.31;63.14;100953.34;7397459;19;1761;-54
2023/06/21 08:21:14;;;;;;;;;;;;;;;23.29;63.63;100966.16;7401523;19;1167;-54
2023/06/21 08:23:45;;;;;;;;;;;;;;;23.26;63.48;100960.22;7401812;19;1494;-54
2023/06/21 08:26:13;;;;;;;;;;;;;;;23.24;63.52;100965.81;7401366;19;1129;-54
2023/06/21 08:28:41;;;;;;;;;;;;;;;23.29;63.42;100955.34;7401751;19;1192;-54
2023/06/21 08:31:12;;;;;;;;;;;;;;;23.36;63.53;100967.22;7402508;19;1669;-54
2023/06/21 08:33:40;;;;;;;;;;;;;;;23.39;62.73;100950.69;7400546;19;1858;-55
2023/06/21 08:36:09;;;;;;;;;;;;;;;23.28;63.23;100964.47;7403572;19;991;-55
2023/06/21 08:38:37;;;;;;;;;;;;;;;23.25;63.52;100953.16;7398553;19;1514;-55
2023/06/21 08:41:08;;;;;;;;;;;;;;;23.16;63.72;100953.09;7401818;19;1919;-54
2023/06/21 08:43:36;;;;;;;;;;;;;;;23.21;63.78;100968.81;7398103;19;1925;-55
2023/06/21 08:46:07;;;;;;;;;;;;;;;23.26;63.28;100953.00;7401184;19;1713;-54
2023/06/21 08:48:38;;;;;;;;;;;;;;;23.22;63.68;100954.31;7398791;19;1475;-55
2023/06/21 08:51:07;;;;;;;;;;;;;;;23.25;63.26;100945.88;7401069;19;1630;-54
2023/06/21 08:53:38;;;;;;;;;;;;;;;23.00;64.61;100952.97;7399183;19;1845;-54
2023/06/21 08:56:09;;;;;;;;;;;;;;;22.99;64.44;100953.94;7397832;19;1478;-55
2023/06/21 08:58:42;;;;;;;;;;;;;;;23.10;64.13;100933.97;7400717;19;1202;-54
2023/06/21 09:01:11;;;;;;;;;;;;;;;23.16;63.67;100944.16;7399661;19;1120;-55
2023/06/21 09:03:47;;;;;;;;;;;;;;;23.06;64.50;100954.19;7401395;19;1190;-52
2023/06/21 09:06:17;;;;;;;;;;;;;;;23.16;64.20;100933.38;7401114;19;1847;-54
2023/06/21 09:08:47;;;;;;;;;;;;;;;23.18;63.89;100943.00;7401430;19;1518;-54
2023/06/21 09:11:19;;;;;;;;;;;;;;;23.02;64.59;100941.03;7399627;19;1759;-54
2023/06/21 09:13:48;;;;;;;;;;;;;;;23.12;64.04;100926.56;7399532;19;1821;-55
2023/06/21 09:16:16;;;;;;;;;;;;;;;23.10;64.08;100920.50;7397334;19;1781;-54
2023/06/21 09:18:45;;;;;;;;;;;;;;;23.16;63.61;100933.38;7396789;19;1851;-54
2023/06/21 09:21:14;;;;;;;;;;;;;;;23.22;63.70;100933.56;7397536;19;1732;-52
2023/06/21 09:23:42;;;;;;;;;;;;;;;23.25;63.28;100927.00;7395912;19;1391;-52
2023/06/21 09:26:11;;;;;;;;;;;;;;;23.27;63.50;100924.16;7397652;19;1836;-52
2023/06/21 09:28:44;;;;;;;;;;;;;;;23.29;63.32;100932.94;7400935;19;1454;-52
2023/06/21 09:31:12;;;;;;;;;;;;;;;23.30;63.24;100919.28;7402269;19;1094;-52
2023/06/21 09:33:40;;;;;;;;;;;;;;;23.32;63.15;100925.38;7397053;19;1853;-52
2023/06/21 09:36:09;;;;;;;;;;;;;;;23.24;63.25;100928.03;7395334;19;1511;-52
2023/06/21 09:38:38;;;;;;;;;;;;;;;23.29;63.36;100919.44;7395292;19;1538;-53
2023/06/21 09:41:08;;;;;;;;;;;;;;;23.28;63.37;100921.31;7395365;19;1617;-52
2023/06/21 09:43:43;;;;;;;;;;;;;;;23.26;63.35;100912.53;7395803;19;1479;-53
2023/06/21 09:46:15;;;;;;;;;;;;;;;23.29;63.12;100917.59;7395920;19;1685;-53
2023/06/21 09:48:43;;;;;;;;;;;;;;;23.23;63.49;100908.28;7396235;19;1259;-53
2023/06/21 09:51:14;;;;;;;;;;;;;;;23.27;63.54;100916.91;7399435;19;1593;-53
2023/06/21 09:53:44;;;;;;;;;;;;;;;23.30;63.18;100913.03;7398620;19;1849;-52
2023/06/21 09:56:14;;;;;;;;;;;;;;;23.31;63.50;100910.16;7398184;19;1545;-53
2023/06/21 09:58:43;;;;;;;;;;;;;;;23.24;63.26;100903.75;7400729;19;1302;-52
2023/06/21 10:01:15;;;;;;;;;;;;;;;23.25;63.34;100916.22;7399792;19;1842;-53
2023/06/21 10:03:46;;;;;;;;;;;;;;;23.27;63.29;100903.41;7399877;19;1263;-53
2023/06/21 10:06:16;;;;;;;;;;;;;;;23.25;63.14;100907.28;7399761;19;1955;-52
2023/06/21 10:08:45;;;;;;;;;;;;;;;23.29;63.35;100901.41;7399218;19;1473;-52
2023/06/21 10:11:18;;;;;;;;;;;;;;;23.24;63.47;100909.16;7396337;19;1242;-52
2023/06/21 10:13:46;;;;;;;;;;;;;;;23.19;63.50;100909.59;7398105;19;1962;-53
2023/06/21 10:16:19;;;;;;;;;;;;;;;23.14;63.67;100911.06;7398674;19;1852;-53
2023/06/21 10:18:49;;;;;;;;;;;;;;;23.18;63.63;100912.47;7398818;19;1233;-52
2023/06/21 10:21:18;;;;;;;;;;;;;;;23.15;63.59;100912.78;7398523;19;1589;-52
2023/06/21 10:23:48;;;;;;;;;;;;;;;23.17;63.65;100908.06;7398602;19;1637;-52
2023/06/21 10:26:17;;;;;;;;;;;;;;;23.22;63.37;100909.28;7398630;19;1218;-53
2023/06/21 10:28:46;;;;;;;;;;;;;;;23.20;63.45;100908.59;7398388;19;1671;-53
2023/06/21 10:31:18;;;;;;;;;;;;;;;23.22;63.46;100909.28;7398786;19;1085;-52
2023/06/21 10:33:48;;;;;;;;;;;;;;;23.26;63.41;100899.03;7398473;19;1857;-53
2023/06/21 10:36:20;;;;;;;;;;;;;;;23.21;63.37;100895.97;7398133;19;1830;-53
2023/06/21 10:38:49;;;;;;;;;;;;;;;23.22;63.71;100897.66;7397697;19;1469;-53
2023/06/21 10:41:17;;;;;;;;;;;;;;;23.20;63.56;100886.19;7396097;19;1577;-52
2023/06/21 10:43:46;;;;;;;;;;;;;;;23.17;63.44;100881.94;7398396;19;1590;-53
2023/06/21 10:46:14;;;;;;;;;;;;;;;23.16;63.61;100899.16;7397504;19;1661;-52
2023/06/21 10:48:46;;;;;;;;;;;;;;;23.16;63.53;100895.59;7398108;19;1651;-53
2023/06/21 10:51:15;;;;;;;;;;;;;;;23.16;63.54;100890.22;7397279;19;1960;-53
2023/06/21 10:53:44;;;;;;;;;;;;;;;23.14;63.45;100889.50;7397788;19;1858;-52
2023/06/21 10:56:16;;;;;;;;;;;;;;;23.20;63.56;100878.09;7397882;19;1851;-53
2023/06/21 10:58:44;;;;;;;;;;;;;;;23.19;63.44;100887.19;7399147;19;1739;-53
2023/06/21 11:01:14;;;;;;;;;;;;;;;23.17;63.46;100884.63;7399642;19;1007;-52
2023/06/21 11:03:45;;;;;;;;;;;;;;;23.19;63.72;100893.41;7398865;19;1871;-52
2023/06/21 11:06:28;;;;;;;;;;;;;;;23.18;63.52;100888.19;7398253;19;1813;-53
2023/06/21 11:08:57;;;;;;;;;;;;;;;23.19;63.45;100892.56;7397484;19;1428;-52
2023/06/21 11:11:32;;;;;;;;;;;;;;;23.19;63.68;100892.56;7397484;19;1974;-53
2023/06/21 11:14:02;;;;;;;;;;;;;;;23.21;63.55;100887.88;7396668;19;1927;-53
2023/06/21 11:16:32;;;;;;;;;;;;;;;23.14;63.74;100881.41;7397639;19;1336;-52
2023/06/21 11:19:05;;;;;;;;;;;;;;;23.18;63.33;100878.25;7397314;19;1830;-53
2023/06/21 11:21:40;;;;;;;;;;;;;;;23.13;63.50;100882.44;7396177;19;1431;-53
2023/06/21 11:24:09;;;;;;;;;;;;;;;23.17;63.58;100870.31;7395854;19;1197;-52
2023/06/21 11:26:54;;;;;;;;;;;;;;;23.15;63.29;100872.31;7396848;19;1572;-53
2023/06/21 11:29:22;;;;;;;;;;;;;;;23.21;63.48;100877.06;7397638;19;1613;-53
2023/06/21 11:31:51;;;;;;;;;;;;;;;23.09;63.66;100867.56;7396175;19;1915;-53
2023/06/21 11:34:29;;;;;;;;;;;;;;;23.07;63.52;100865.03;7395285;19;1875;-53
2023/06/21 11:36:58;;;;;;;;;;;;;;;23.10;63.68;100867.41;7396191;19;1603;-53
2023/06/21 11:39:29;;;;;;;;;;;;;;;23.11;63.65;100869.09;7396538;19;1597;-53
2023/06/21 11:42:02;;;;;;;;;;;;;;;23.13;63.61;100863.53;7396431;19;1640;-53
2023/06/21 11:44:31;;;;;;;;;;;;;;;23.13;63.71;100868.94;7397677;19;1178;-53
2023/06/21 11:47:05;;;;;;;;;;;;;;;23.13;63.56;100847.34;7396277;19;1605;-53
2023/06/21 11:49:36;;;;;;;;;;;;;;;23.14;63.65;100865.22;7396693;19;1562;-53
2023/06/21 11:52:05;;;;;;;;;;;;;;;23.12;63.59;100862.72;7401481;19;1539;-53
2023/06/21 11:54:34;;;;;;;;;;;;;;;23.10;63.67;100853.06;7409842;19;1857;-52
2023/06/21 11:57:05;;;;;;;;;;;;;;;23.12;63.65;100857.31;7410686;19;1619;-53
2023/06/21 11:59:35;;;;;;;;;;;;;;;23.09;63.61;100867.56;7410260;19;1630;-53
2023/06/21 12:02:05;;;;;;;;;;;;;;;23.05;63.85;100855.41;7410028;19;1502;-53
2023/06/21 12:04:33;;;;;;;;;;;;;;;23.08;63.58;100858.63;7410272;19;1546;-52
2023/06/21 12:07:04;;;;;;;;;;;;;;;23.07;63.83;100854.25;7410387;19;1534;-52
2023/06/21 12:09:33;;;;;;;;;;;;;;;23.07;63.84;100842.63;7409885;19;1874;-53
2023/06/21 12:12:01;;;;;;;;;;;;;;;23.06;64.04;100840.91;7409571;19;1162;-53
2023/06/21 12:14:29;;;;;;;;;;;;;;;23.06;63.83;100840.91;7409972;19;1862;-53
2023/06/21 12:16:57;;;;;;;;;;;;;;;23.06;64.00;100838.19;7410693;19;1466;-53
2023/06/21 12:19:26;;;;;;;;;;;;;;;23.05;63.79;100833.84;7409251;19;1184;-52
2023/06/21 12:22:01;;;;;;;;;;;;;;;23.05;63.84;100861.66;7409483;19;1204;-52
2023/06/21 12:24:33;;;;;;;;;;;;;;;23.00;63.68;100848.63;7409142;19;1486;-53
2023/06/21 12:27:03;;;;;;;;;;;;;;;23.03;64.06;100848.31;7409496;19;1578;-53
2023/06/21 12:29:32;;;;;;;;;;;;;;;23.00;63.97;100847.78;7410947;19;1223;-53
2023/06/21 12:32:00;;;;;;;;;;;;;;;23.02;64.04;100862.81;7409234;19;1274;-53
2023/06/21 12:34:28;;;;;;;;;;;;;;;22.99;63.91;100852.31;7407843;19;1833;-53
2023/06/21 12:36:58;;;;;;;;;;;;;;;23.03;63.83;100853.72;7410094;19;1490;-53
2023/06/21 12:39:27;;;;;;;;;;;;;;;23.05;63.86;100847.31;7408410;19;1566;-53
2023/06/21 12:42:01;;;;;;;;;;;;;;;23.06;63.71;100849.00;7408988;19;1542;-52
2023/06/21 12:44:31;;;;;;;;;;;;;;;23.08;63.75;100844.28;7409297;19;1571;-53
2023/06/21 12:46:59;;;;;;;;;;;;;;;23.05;63.86;100833.84;7409658;19;1148;-53
2023/06/21 12:49:28;;;;;;;;;;;;;;;23.05;63.98;100847.31;7406249;19;1803;-52
2023/06/21 12:51:56;;;;;;;;;;;;;;;23.08;64.00;100844.28;7408549;19;1635;-53
2023/06/21 12:54:24;;;;;;;;;;;;;;;23.07;63.83;100821.03;7407857;19;1853;-52
2023/06/21 12:56:58;;;;;;;;;;;;;;;23.06;63.81;100835.50;7408874;19;1613;-52
2023/06/21 12:59:29;;;;;;;;;;;;;;;23.03;63.86;100845.63;7409316;19;1628;-53